sensor_id;sensor_type;location;lat;lon;timestamp;pressure;altitude;pressure_sealevel;temperature;humidity
72118;BME280;59992;47.490;8.736;2023-11-21T00:00:10;96189.87;;;7.20;94.78
72118;BME280;59992;47.490;8.736;2023-11-21T00:03:01;96182.63;;;7.20;96.70
72118;BME280;59992;47.490;8.736;2023-11-21T00:05:53;96181.38;;;7.21;97.71
72118;BME280;59992;47.490;8.736;2023-11-21T00:08:43;96180.01;;;7.21;96.88
72118;BME280;59992;47.490;8.736;2023-11-21T00:11:33;96179.75;;;7.19;97.46
72118;BME280;59992;47.490;8.736;2023-11-21T00:14:24;96177.96;;;7.16;96.72
72118;BME280;59992;47.490;8.736;2023-11-21T00:17:14;96177.77;;;7.14;98.50
72118;BME280;59992;47.490;8.736;2023-11-21T00:20:06;96170.98;;;7.14;98.85
72118;BME280;59992;47.490;8.736;2023-11-21T00:22:57;96169.23;;;7.13;97.73
72118;BME280;59992;47.490;8.736;2023-11-21T00:25:48;96166.96;;;7.12;97.71
72118;BME280;59992;47.490;8.736;2023-11-21T00:28:39;96166.33;;;7.11;96.00
72118;BME280;59992;47.490;8.736;2023-11-21T00:31:29;96169.89;;;7.12;94.26
72118;BME280;59992;47.490;8.736;2023-11-21T00:34:20;96173.76;;;7.17;94.61
72118;BME280;59992;47.490;8.736;2023-11-21T00:37:10;96177.38;;;7.22;93.85
72118;BME280;59992;47.490;8.736;2023-11-21T00:40:01;96174.02;;;7.26;94.08
72118;BME280;59992;47.490;8.736;2023-11-21T00:42:54;96168.59;;;7.30;94.99
72118;BME280;59992;47.490;8.736;2023-11-21T00:45:45;96164.86;;;7.32;95.27
72118;BME280;59992;47.490;8.736;2023-11-21T00:48:38;96157.66;;;7.34;95.77
72118;BME280;59992;47.490;8.736;2023-11-21T00:51:28;96157.39;;;7.35;94.97
72118;BME280;59992;47.490;8.736;2023-11-21T00:54:18;96156.86;;;7.36;96.22
72118;BME280;59992;47.490;8.736;2023-11-21T00:57:09;96160.96;;;7.37;96.00
72118;BME280;59992;47.490;8.736;2023-11-21T01:00:00;96159.89;;;7.37;96.51
72118;BME280;59992;47.490;8.736;2023-11-21T01:02:56;96159.71;;;7.35;95.81
72118;BME280;59992;47.490;8.736;2023-11-21T01:05:47;96153.45;;;7.35;97.05
72118;BME280;59992;47.490;8.736;2023-11-21T01:08:38;96157.96;;;7.34;96.89
72118;BME280;59992;47.490;8.736;2023-11-21T01:11:28;96162.02;;;7.34;96.47
72118;BME280;59992;47.490;8.736;2023-11-21T01:14:19;96161.95;;;7.33;97.16
72118;BME280;59992;47.490;8.736;2023-11-21T01:17:10;96154.12;;;7.33;98.06
72118;BME280;59992;47.490;8.736;2023-11-21T01:20:00;96153.43;;;7.33;96.75
72118;BME280;59992;47.490;8.736;2023-11-21T01:22:52;96157.22;;;7.30;97.11
72118;BME280;59992;47.490;8.736;2023-11-21T01:25:42;96158.05;;;7.31;97.85
72118;BME280;59992;47.490;8.736;2023-11-21T01:28:32;96152.32;;;7.30;99.74
72118;BME280;59992;47.490;8.736;2023-11-21T01:31:23;96152.95;;;7.31;99.01
72118;BME280;59992;47.490;8.736;2023-11-21T01:34:13;96151.87;;;7.30;99.91
72118;BME280;59992;47.490;8.736;2023-11-21T01:37:03;96152.71;;;7.31;99.72
72118;BME280;59992;47.490;8.736;2023-11-21T01:39:54;96155.02;;;7.30;100.00
72118;BME280;59992;47.490;8.736;2023-11-21T01:42:44;96148.23;;;7.29;100.00
72118;BME280;59992;47.490;8.736;2023-11-21T01:45:36;96148.41;;;7.30;100.00
72118;BME280;59992;47.490;8.736;2023-11-21T01:48:26;96149.55;;;7.31;100.00
72118;BME280;59992;47.490;8.736;2023-11-21T01:51:18;96149.38;;;7.29;99.96
72118;BME280;59992;47.490;8.736;2023-11-21T01:54:08;96152.84;;;7.29;100.00
72118;BME280;59992;47.490;8.736;2023-11-21T01:57:01;96148.94;;;7.30;100.00
72118;BME280;59992;47.490;8.736;2023-11-21T01:59:55;96145.85;;;7.30;100.00
72118;BME280;59992;47.490;8.736;2023-11-21T02:02:48;96140.73;;;7.22;100.00
72118;BME280;59992;47.490;8.736;2023-11-21T02:05:41;96146.84;;;7.27;100.00
72118;BME280;59992;47.490;8.736;2023-11-21T02:08:33;96144.11;;;7.26;100.00
72118;BME280;59992;47.490;8.736;2023-11-21T02:11:27;96147.91;;;7.24;100.00
72118;BME280;59992;47.490;8.736;2023-11-21T02:14:17;96149.13;;;7.25;100.00
72118;BME280;59992;47.490;8.736;2023-11-21T02:17:09;96148.71;;;7.23;100.00
72118;BME280;59992;47.490;8.736;2023-11-21T02:19:59;96151.18;;;7.21;100.00
72118;BME280;59992;47.490;8.736;2023-11-21T02:22:53;96150.05;;;7.21;100.00
72118;BME280;59992;47.490;8.736;2023-11-21T02:25:46;96150.80;;;7.21;100.00
72118;BME280;59992;47.490;8.736;2023-11-21T02:28:37;96152.90;;;7.21;100.00
72118;BME280;59992;47.490;8.736;2023-11-21T02:31:28;96152.37;;;7.21;100.00
72118;BME280;59992;47.490;8.736;2023-11-21T02:34:19;96151.70;;;7.21;100.00
72118;BME280;59992;47.490;8.736;2023-11-21T02:37:09;96147.92;;;7.20;100.00
72118;BME280;59992;47.490;8.736;2023-11-21T02:40:01;96152.74;;;7.21;100.00
72118;BME280;59992;47.490;8.736;2023-11-21T02:42:55;96154.59;;;7.19;100.00
72118;BME280;59992;47.490;8.736;2023-11-21T02:45:47;96158.19;;;7.18;100.00
72118;BME280;59992;47.490;8.736;2023-11-21T02:48:38;96155.64;;;7.18;100.00
72118;BME280;59992;47.490;8.736;2023-11-21T02:51:28;96150.67;;;7.18;100.00
72118;BME280;59992;47.490;8.736;2023-11-21T02:54:19;96151.88;;;7.18;100.00
72118;BME280;59992;47.490;8.736;2023-11-21T02:57:11;96154.20;;;7.18;100.00
72118;BME280;59992;47.490;8.736;2023-11-21T03:00:02;96152.04;;;7.19;100.00
72118;BME280;59992;47.490;8.736;2023-11-21T03:02:56;96154.58;;;7.22;100.00
72118;BME280;59992;47.490;8.736;2023-11-21T03:05:47;96149.45;;;7.21;100.00
72118;BME280;59992;47.490;8.736;2023-11-21T03:08:37;96154.21;;;7.19;100.00
72118;BME280;59992;47.490;8.736;2023-11-21T03:11:27;96150.13;;;7.17;100.00
72118;BME280;59992;47.490;8.736;2023-11-21T03:14:18;96148.29;;;7.16;99.91
72118;BME280;59992;47.490;8.736;2023-11-21T03:17:08;96146.48;;;7.17;99.87
72118;BME280;59992;47.490;8.736;2023-11-21T03:19:59;96146.27;;;7.17;99.92
72118;BME280;59992;47.490;8.736;2023-11-21T03:22:49;96141.46;;;7.17;99.89
72118;BME280;59992;47.490;8.736;2023-11-21T03:25:42;96137.35;;;7.11;98.37
72118;BME280;59992;47.490;8.736;2023-11-21T03:28:32;96136.44;;;7.07;96.98
72118;BME280;59992;47.490;8.736;2023-11-21T03:31:22;96135.05;;;7.05;98.86
72118;BME280;59992;47.490;8.736;2023-11-21T03:34:19;96140.30;;;7.04;98.50
72118;BME280;59992;47.490;8.736;2023-11-21T03:37:10;96142.29;;;7.02;98.34
72118;BME280;59992;47.490;8.736;2023-11-21T03:40:00;96140.63;;;6.98;99.87
72118;BME280;59992;47.490;8.736;2023-11-21T03:42:53;96142.42;;;6.98;100.00
72118;BME280;59992;47.490;8.736;2023-11-21T03:45:43;96149.21;;;6.98;100.00
72118;BME280;59992;47.490;8.736;2023-11-21T03:48:33;96150.55;;;6.97;100.00
72118;BME280;59992;47.490;8.736;2023-11-21T03:51:24;96149.09;;;6.96;100.00
72118;BME280;59992;47.490;8.736;2023-11-21T03:54:15;96147.22;;;6.96;100.00
72118;BME280;59992;47.490;8.736;2023-11-21T03:57:06;96148.44;;;6.93;100.00
72118;BME280;59992;47.490;8.736;2023-11-21T03:59:56;96145.08;;;6.94;100.00
72118;BME280;59992;47.490;8.736;2023-11-21T04:02:46;96145.72;;;6.93;100.00
72118;BME280;59992;47.490;8.736;2023-11-21T04:05:37;96147.30;;;6.93;100.00
72118;BME280;59992;47.490;8.736;2023-11-21T04:08:27;96152.42;;;6.93;100.00
72118;BME280;59992;47.490;8.736;2023-11-21T04:11:17;96150.40;;;6.94;100.00
72118;BME280;59992;47.490;8.736;2023-11-21T04:14:08;96147.23;;;6.93;100.00
72118;BME280;59992;47.490;8.736;2023-11-21T04:16:59;96143.20;;;6.91;100.00
72118;BME280;59992;47.490;8.736;2023-11-21T04:19:49;96140.16;;;6.93;100.00
72118;BME280;59992;47.490;8.736;2023-11-21T04:22:40;96134.48;;;6.91;100.00
72118;BME280;59992;47.490;8.736;2023-11-21T04:25:33;96131.63;;;6.88;100.00
72118;BME280;59992;47.490;8.736;2023-11-21T04:28:23;96128.07;;;6.87;100.00
72118;BME280;59992;47.490;8.736;2023-11-21T04:31:16;96130.48;;;6.87;99.95
72118;BME280;59992;47.490;8.736;2023-11-21T04:34:06;96126.74;;;6.85;99.05
72118;BME280;59992;47.490;8.736;2023-11-21T04:36:59;96128.31;;;6.84;99.34
72118;BME280;59992;47.490;8.736;2023-11-21T04:39:49;96131.90;;;6.84;99.18
72118;BME280;59992;47.490;8.736;2023-11-21T04:42:39;96139.77;;;6.85;99.66
72118;BME280;59992;47.490;8.736;2023-11-21T04:45:29;96142.65;;;6.86;99.71
72118;BME280;59992;47.490;8.736;2023-11-21T04:48:19;96142.05;;;6.86;99.23
72118;BME280;59992;47.490;8.736;2023-11-21T04:51:09;96148.44;;;6.89;99.31
72118;BME280;59992;47.490;8.736;2023-11-21T04:54:00;96146.69;;;6.92;99.10
72118;BME280;59992;47.490;8.736;2023-11-21T04:56:50;96138.67;;;6.87;97.85
72118;BME280;59992;47.490;8.736;2023-11-21T04:59:40;96142.25;;;6.92;98.27
72118;BME280;59992;47.490;8.736;2023-11-21T05:02:30;96144.95;;;6.92;98.68
72118;BME280;59992;47.490;8.736;2023-11-21T05:05:20;96144.34;;;6.92;98.44
72118;BME280;59992;47.490;8.736;2023-11-21T05:08:11;96141.02;;;6.87;98.74
72118;BME280;59992;47.490;8.736;2023-11-21T05:11:02;96141.45;;;6.90;98.70
72118;BME280;59992;47.490;8.736;2023-11-21T05:13:52;96145.23;;;6.84;97.89
72118;BME280;59992;47.490;8.736;2023-11-21T05:16:45;96151.42;;;6.89;98.45
72118;BME280;59992;47.490;8.736;2023-11-21T05:19:35;96150.80;;;6.87;97.28
72118;BME280;59992;47.490;8.736;2023-11-21T05:22:26;96153.23;;;6.92;98.29
72118;BME280;59992;47.490;8.736;2023-11-21T05:25:17;96154.48;;;6.91;97.67
72118;BME280;59992;47.490;8.736;2023-11-21T05:28:09;96155.09;;;6.91;97.36
72118;BME280;59992;47.490;8.736;2023-11-21T05:30:59;96166.61;;;6.88;97.47
72118;BME280;59992;47.490;8.736;2023-11-21T05:33:54;96168.16;;;6.90;98.08
72118;BME280;59992;47.490;8.736;2023-11-21T05:36:45;96163.75;;;6.87;98.67
72118;BME280;59992;47.490;8.736;2023-11-21T05:39:36;96171.52;;;6.88;98.81
72118;BME280;59992;47.490;8.736;2023-11-21T05:42:26;96179.33;;;6.91;98.95
72118;BME280;59992;47.490;8.736;2023-11-21T05:45:16;96176.19;;;6.92;99.29
72118;BME280;59992;47.490;8.736;2023-11-21T05:48:08;96178.63;;;6.93;99.92
72118;BME280;59992;47.490;8.736;2023-11-21T05:50:58;96183.19;;;6.95;100.00
72118;BME280;59992;47.490;8.736;2023-11-21T05:53:50;96181.54;;;6.96;99.75
72118;BME280;59992;47.490;8.736;2023-11-21T05:56:41;96182.86;;;6.94;99.72
72118;BME280;59992;47.490;8.736;2023-11-21T05:59:33;96180.30;;;6.94;99.80
72118;BME280;59992;47.490;8.736;2023-11-21T06:02:24;96185.50;;;6.94;99.84
72118;BME280;59992;47.490;8.736;2023-11-21T06:05:15;96195.61;;;6.89;99.31
72118;BME280;59992;47.490;8.736;2023-11-21T06:08:06;96195.61;;;6.92;99.48
72118;BME280;59992;47.490;8.736;2023-11-21T06:10:58;96194.13;;;6.93;99.99
72118;BME280;59992;47.490;8.736;2023-11-21T06:13:48;96196.46;;;6.90;99.77
72118;BME280;59992;47.490;8.736;2023-11-21T06:16:39;96187.37;;;6.90;99.95
72118;BME280;59992;47.490;8.736;2023-11-21T06:19:30;96196.23;;;6.92;100.00
72118;BME280;59992;47.490;8.736;2023-11-21T06:22:20;96196.96;;;6.88;100.00
72118;BME280;59992;47.490;8.736;2023-11-21T06:25:12;96202.14;;;6.95;100.00
72118;BME280;59992;47.490;8.736;2023-11-21T06:28:03;96204.45;;;6.94;99.96
72118;BME280;59992;47.490;8.736;2023-11-21T06:30:54;96205.92;;;6.95;99.98
72118;BME280;59992;47.490;8.736;2023-11-21T06:33:44;96210.70;;;6.94;99.89
72118;BME280;59992;47.490;8.736;2023-11-21T06:36:34;96210.67;;;6.96;100.00
72118;BME280;59992;47.490;8.736;2023-11-21T06:39:24;96207.27;;;6.99;100.00
72118;BME280;59992;47.490;8.736;2023-11-21T06:42:14;96208.96;;;6.96;100.00
72118;BME280;59992;47.490;8.736;2023-11-21T06:45:06;96208.89;;;7.01;100.00
72118;BME280;59992;47.490;8.736;2023-11-21T06:47:56;96207.40;;;7.05;100.00
72118;BME280;59992;47.490;8.736;2023-11-21T06:50:47;96210.14;;;7.10;99.99
72118;BME280;59992;47.490;8.736;2023-11-21T06:53:41;96213.65;;;7.09;100.00
72118;BME280;59992;47.490;8.736;2023-11-21T06:56:31;96218.61;;;7.12;100.00
72118;BME280;59992;47.490;8.736;2023-11-21T06:59:21;96222.46;;;7.13;99.83
72118;BME280;59992;47.490;8.736;2023-11-21T07:02:12;96223.51;;;7.12;99.53
72118;BME280;59992;47.490;8.736;2023-11-21T07:05:13;96230.80;;;7.11;99.66
72118;BME280;59992;47.490;8.736;2023-11-21T07:08:08;96229.34;;;7.13;100.00
72118;BME280;59992;47.490;8.736;2023-11-21T07:10:58;96227.38;;;7.13;99.77
72118;BME280;59992;47.490;8.736;2023-11-21T07:13:49;96231.61;;;7.14;99.68
72118;BME280;59992;47.490;8.736;2023-11-21T07:16:39;96229.05;;;7.14;100.00
72118;BME280;59992;47.490;8.736;2023-11-21T07:19:29;96232.13;;;7.17;99.98
72118;BME280;59992;47.490;8.736;2023-11-21T07:22:23;96231.77;;;7.22;100.00
72118;BME280;59992;47.490;8.736;2023-11-21T07:25:14;96232.23;;;7.27;100.00
72118;BME280;59992;47.490;8.736;2023-11-21T07:28:05;96233.64;;;7.25;99.85
72118;BME280;59992;47.490;8.736;2023-11-21T07:30:55;96238.27;;;7.23;99.39
72118;BME280;59992;47.490;8.736;2023-11-21T07:33:46;96239.77;;;7.23;99.93
72118;BME280;59992;47.490;8.736;2023-11-21T07:36:37;96239.27;;;7.27;100.00
72118;BME280;59992;47.490;8.736;2023-11-21T07:39:27;96241.03;;;7.29;100.00
72118;BME280;59992;47.490;8.736;2023-11-21T07:42:18;96236.16;;;7.30;99.89
72118;BME280;59992;47.490;8.736;2023-11-21T07:45:10;96237.77;;;7.28;99.79
72118;BME280;59992;47.490;8.736;2023-11-21T07:48:00;96243.77;;;7.34;100.00
72118;BME280;59992;47.490;8.736;2023-11-21T07:50:52;96244.33;;;7.39;100.00
72118;BME280;59992;47.490;8.736;2023-11-21T07:53:43;96247.57;;;7.44;99.85
72118;BME280;59992;47.490;8.736;2023-11-21T07:56:33;96237.86;;;7.36;98.68
72118;BME280;59992;47.490;8.736;2023-11-21T07:59:24;96246.55;;;7.45;99.40
72118;BME280;59992;47.490;8.736;2023-11-21T08:02:14;96237.21;;;7.49;99.88
72118;BME280;59992;47.490;8.736;2023-11-21T08:05:06;96247.35;;;7.59;99.78
72118;BME280;59992;47.490;8.736;2023-11-21T08:07:57;96249.08;;;7.66;98.70
72118;BME280;59992;47.490;8.736;2023-11-21T08:10:48;96242.14;;;7.75;99.07
72118;BME280;59992;47.490;8.736;2023-11-21T08:13:45;96238.22;;;7.82;97.18
72118;BME280;59992;47.490;8.736;2023-11-21T08:16:36;96242.96;;;7.94;98.36
72118;BME280;59992;47.490;8.736;2023-11-21T08:19:26;96238.85;;;8.09;98.36
72118;BME280;59992;47.490;8.736;2023-11-21T08:22:17;96238.90;;;8.26;97.32
72118;BME280;59992;47.490;8.736;2023-11-21T08:25:10;96242.20;;;8.42;97.50
72118;BME280;59992;47.490;8.736;2023-11-21T08:28:05;96246.20;;;8.56;95.67
72118;BME280;59992;47.490;8.736;2023-11-21T08:30:57;96250.39;;;8.63;93.77
72118;BME280;59992;47.490;8.736;2023-11-21T08:33:48;96249.02;;;8.72;94.89
72118;BME280;59992;47.490;8.736;2023-11-21T08:36:42;96254.05;;;8.80;93.92
72118;BME280;59992;47.490;8.736;2023-11-21T08:39:37;96255.13;;;8.78;92.66
72118;BME280;59992;47.490;8.736;2023-11-21T08:42:30;96257.80;;;8.83;91.95
72118;BME280;59992;47.490;8.736;2023-11-21T08:45:24;96260.21;;;8.74;91.29
72118;BME280;59992;47.490;8.736;2023-11-21T08:48:17;96261.75;;;8.75;92.28
72118;BME280;59992;47.490;8.736;2023-11-21T08:51:09;96263.24;;;8.74;93.16
72118;BME280;59992;47.490;8.736;2023-11-21T08:54:01;96266.52;;;8.72;92.07
72118;BME280;59992;47.490;8.736;2023-11-21T08:56:53;96238.42;;;8.51;90.92
72118;BME280;59992;47.490;8.736;2023-11-21T08:59:44;96264.89;;;8.59;91.20
72118;BME280;59992;47.490;8.736;2023-11-21T09:02:42;96250.74;;;8.38;91.71
72118;BME280;59992;47.490;8.736;2023-11-21T09:05:32;96263.14;;;8.54;92.98
72118;BME280;59992;47.490;8.736;2023-11-21T09:08:23;96269.46;;;8.53;93.46
72118;BME280;59992;47.490;8.736;2023-11-21T09:11:13;96270.25;;;8.58;94.04
72118;BME280;59992;47.490;8.736;2023-11-21T09:14:06;96272.83;;;8.59;91.89
72118;BME280;59992;47.490;8.736;2023-11-21T09:16:57;96274.81;;;8.57;91.61
72118;BME280;59992;47.490;8.736;2023-11-21T09:19:50;96282.16;;;8.63;93.52
72118;BME280;59992;47.490;8.736;2023-11-21T09:22:44;96287.15;;;8.64;91.78
72118;BME280;59992;47.490;8.736;2023-11-21T09:25:36;96289.27;;;8.64;92.25
72118;BME280;59992;47.490;8.736;2023-11-21T09:31:38;96292.56;;;8.58;91.42
72118;BME280;59992;47.490;8.736;2023-11-21T09:34:28;96296.51;;;8.54;91.61
72118;BME280;59992;47.490;8.736;2023-11-21T09:37:22;96299.85;;;8.51;92.04
72118;BME280;59992;47.490;8.736;2023-11-21T09:40:17;96292.27;;;8.39;92.80
72118;BME280;59992;47.490;8.736;2023-11-21T09:43:17;96302.86;;;8.51;93.22
72118;BME280;59992;47.490;8.736;2023-11-21T09:46:09;96304.73;;;8.53;92.76
72118;BME280;59992;47.490;8.736;2023-11-21T09:49:03;96297.95;;;8.53;91.80
72118;BME280;59992;47.490;8.736;2023-11-21T09:51:57;96298.23;;;8.58;94.44
72118;BME280;59992;47.490;8.736;2023-11-21T09:54:48;96293.64;;;8.63;93.19
72118;BME280;59992;47.490;8.736;2023-11-21T09:57:40;96295.17;;;8.70;93.35
72118;BME280;59992;47.490;8.736;2023-11-21T10:00:32;96298.06;;;8.76;93.24
72118;BME280;59992;47.490;8.736;2023-11-21T10:03:23;96292.98;;;8.78;93.66
72118;BME280;59992;47.490;8.736;2023-11-21T10:06:14;96290.60;;;8.85;94.67
72118;BME280;59992;47.490;8.736;2023-11-21T10:09:07;96291.34;;;8.90;92.44
72118;BME280;59992;47.490;8.736;2023-11-21T10:12:00;96295.77;;;8.93;92.71
72118;BME280;59992;47.490;8.736;2023-11-21T10:14:53;96292.09;;;8.95;93.45
72118;BME280;59992;47.490;8.736;2023-11-21T10:17:45;96285.52;;;8.99;93.21
72118;BME280;59992;47.490;8.736;2023-11-21T10:20:37;96282.69;;;8.92;91.86
72118;BME280;59992;47.490;8.736;2023-11-21T10:23:28;96284.41;;;8.97;92.62
72118;BME280;59992;47.490;8.736;2023-11-21T10:26:18;96282.35;;;9.05;92.04
72118;BME280;59992;47.490;8.736;2023-11-21T10:29:15;96283.70;;;9.11;91.28
72118;BME280;59992;47.490;8.736;2023-11-21T10:32:07;96283.20;;;9.12;91.75
72118;BME280;59992;47.490;8.736;2023-11-21T10:34:59;96278.59;;;9.12;90.49
72118;BME280;59992;47.490;8.736;2023-11-21T10:38:02;96274.60;;;9.19;90.85
72118;BME280;59992;47.490;8.736;2023-11-21T10:40:55;96276.13;;;9.20;90.82
72118;BME280;59992;47.490;8.736;2023-11-21T10:43:46;96277.89;;;9.28;89.71
72118;BME280;59992;47.490;8.736;2023-11-21T10:46:36;96281.08;;;9.28;90.04
72118;BME280;59992;47.490;8.736;2023-11-21T10:49:27;96284.92;;;9.39;90.98
72118;BME280;59992;47.490;8.736;2023-11-21T10:52:20;96286.64;;;9.56;89.70
72118;BME280;59992;47.490;8.736;2023-11-21T10:55:19;96292.55;;;9.62;87.80
72118;BME280;59992;47.490;8.736;2023-11-21T10:58:13;96293.61;;;9.63;87.72
72118;BME280;59992;47.490;8.736;2023-11-21T11:01:05;96289.23;;;9.69;86.57
72118;BME280;59992;47.490;8.736;2023-11-21T11:03:56;96293.70;;;9.64;86.79
72118;BME280;59992;47.490;8.736;2023-11-21T11:06:49;96291.96;;;9.65;86.79
72118;BME280;59992;47.490;8.736;2023-11-21T11:09:41;96289.24;;;9.59;86.14
72118;BME280;59992;47.490;8.736;2023-11-21T11:12:33;96287.42;;;9.58;86.73
72118;BME280;59992;47.490;8.736;2023-11-21T11:15:25;96281.74;;;9.51;87.10
72118;BME280;59992;47.490;8.736;2023-11-21T11:18:16;96286.13;;;9.39;86.30
72118;BME280;59992;47.490;8.736;2023-11-21T11:21:14;96284.52;;;9.37;87.27
72118;BME280;59992;47.490;8.736;2023-11-21T11:24:41;96281.59;;;9.33;87.72
72118;BME280;59992;47.490;8.736;2023-11-21T11:27:51;96282.02;;;9.43;89.32
72118;BME280;59992;47.490;8.736;2023-11-21T11:30:57;96279.70;;;9.44;87.50
72118;BME280;59992;47.490;8.736;2023-11-21T11:33:56;96283.14;;;9.54;89.04
72118;BME280;59992;47.490;8.736;2023-11-21T11:36:52;96277.44;;;9.64;89.38
72118;BME280;59992;47.490;8.736;2023-11-21T11:39:52;96276.59;;;9.81;89.03
72118;BME280;59992;47.490;8.736;2023-11-21T11:43:00;96270.86;;;9.83;86.67
72118;BME280;59992;47.490;8.736;2023-11-21T11:45:53;96269.45;;;9.85;87.96
72118;BME280;59992;47.490;8.736;2023-11-21T11:48:46;96269.27;;;9.89;87.55
72118;BME280;59992;47.490;8.736;2023-11-21T11:51:37;96268.73;;;9.89;87.37
72118;BME280;59992;47.490;8.736;2023-11-21T11:54:37;96274.38;;;9.94;86.67
72118;BME280;59992;47.490;8.736;2023-11-21T11:57:31;96273.73;;;9.97;85.72
72118;BME280;59992;47.490;8.736;2023-11-21T12:00:35;96278.09;;;10.01;86.69
72118;BME280;59992;47.490;8.736;2023-11-21T12:03:26;96277.55;;;10.00;86.13
72118;BME280;59992;47.490;8.736;2023-11-21T12:06:18;96278.14;;;10.05;87.02
72118;BME280;59992;47.490;8.736;2023-11-21T12:09:21;96273.75;;;9.99;86.83
72118;BME280;59992;47.490;8.736;2023-11-21T12:12:15;96272.91;;;9.92;87.16
72118;BME280;59992;47.490;8.736;2023-11-21T12:15:08;96275.71;;;9.97;87.63
72118;BME280;59992;47.490;8.736;2023-11-21T12:17:58;96277.42;;;10.03;88.32
72118;BME280;59992;47.490;8.736;2023-11-21T12:20:51;96276.37;;;10.02;88.23
72118;BME280;59992;47.490;8.736;2023-11-21T12:23:41;96276.57;;;10.00;88.79
72118;BME280;59992;47.490;8.736;2023-11-21T12:26:32;96274.68;;;10.01;89.72
72118;BME280;59992;47.490;8.736;2023-11-21T12:29:23;96273.73;;;9.97;89.82
72118;BME280;59992;47.490;8.736;2023-11-21T12:32:14;96276.25;;;9.92;89.58
72118;BME280;59992;47.490;8.736;2023-11-21T12:35:07;96281.33;;;9.92;89.70
72118;BME280;59992;47.490;8.736;2023-11-21T12:37:59;96284.11;;;9.91;90.53
72118;BME280;59992;47.490;8.736;2023-11-21T12:40:52;96288.04;;;9.90;90.38
72118;BME280;59992;47.490;8.736;2023-11-21T12:43:44;96289.38;;;9.88;89.81
72118;BME280;59992;47.490;8.736;2023-11-21T12:46:36;96289.58;;;9.86;89.76
72118;BME280;59992;47.490;8.736;2023-11-21T12:49:31;96290.10;;;9.85;89.96
72118;BME280;59992;47.490;8.736;2023-11-21T12:52:23;96282.84;;;9.79;89.97
72118;BME280;59992;47.490;8.736;2023-11-21T12:55:15;96290.84;;;9.84;89.83
72118;BME280;59992;47.490;8.736;2023-11-21T12:58:06;96290.95;;;9.79;90.07
72118;BME280;59992;47.490;8.736;2023-11-21T13:01:01;96293.17;;;9.77;89.63
72118;BME280;59992;47.490;8.736;2023-11-21T13:03:52;96296.95;;;9.76;90.79
72118;BME280;59992;47.490;8.736;2023-11-21T13:06:43;96302.05;;;9.79;90.85
72118;BME280;59992;47.490;8.736;2023-11-21T13:09:33;96294.92;;;9.78;90.33
72118;BME280;59992;47.490;8.736;2023-11-21T13:12:29;96293.74;;;9.81;89.86
72118;BME280;59992;47.490;8.736;2023-11-21T13:15:24;96293.95;;;9.78;90.57
72118;BME280;59992;47.490;8.736;2023-11-21T13:18:16;96289.80;;;9.80;90.71
72118;BME280;59992;47.490;8.736;2023-11-21T13:21:08;96291.31;;;9.79;90.49
72118;BME280;59992;47.490;8.736;2023-11-21T13:24:06;96294.88;;;9.80;90.24
72118;BME280;59992;47.490;8.736;2023-11-21T13:26:56;96299.92;;;9.78;90.25
72118;BME280;59992;47.490;8.736;2023-11-21T13:29:47;96303.01;;;9.77;87.95
72118;BME280;59992;47.490;8.736;2023-11-21T13:32:38;96303.35;;;9.73;87.70
72118;BME280;59992;47.490;8.736;2023-11-21T13:35:30;96304.03;;;9.68;87.54
72118;BME280;59992;47.490;8.736;2023-11-21T13:38:22;96305.06;;;9.66;89.27
72118;BME280;59992;47.490;8.736;2023-11-21T13:41:12;96310.23;;;9.63;88.25
72118;BME280;59992;47.490;8.736;2023-11-21T13:44:03;96313.34;;;9.57;87.61
72118;BME280;59992;47.490;8.736;2023-11-21T13:47:04;96305.00;;;9.48;87.66
72118;BME280;59992;47.490;8.736;2023-11-21T13:49:55;96316.45;;;9.51;87.58
72118;BME280;59992;47.490;8.736;2023-11-21T13:52:46;96319.59;;;9.49;87.39
72118;BME280;59992;47.490;8.736;2023-11-21T13:55:37;96321.51;;;9.45;87.29
72118;BME280;59992;47.490;8.736;2023-11-21T13:58:28;96323.65;;;9.42;88.02
72118;BME280;59992;47.490;8.736;2023-11-21T14:01:30;96325.89;;;9.39;88.99
72118;BME280;59992;47.490;8.736;2023-11-21T14:04:42;96323.79;;;9.30;88.90
72118;BME280;59992;47.490;8.736;2023-11-21T14:07:43;96327.36;;;9.26;88.31
72118;BME280;59992;47.490;8.736;2023-11-21T14:10:36;96330.27;;;9.22;90.84
72118;BME280;59992;47.490;8.736;2023-11-21T14:13:31;96331.21;;;9.21;91.73
72118;BME280;59992;47.490;8.736;2023-11-21T14:16:22;96333.59;;;9.16;91.77
72118;BME280;59992;47.490;8.736;2023-11-21T14:19:12;96333.83;;;9.13;92.77
72118;BME280;59992;47.490;8.736;2023-11-21T14:22:06;96334.99;;;9.10;92.26
72118;BME280;59992;47.490;8.736;2023-11-21T14:24:58;96340.60;;;9.06;93.32
72118;BME280;59992;47.490;8.736;2023-11-21T14:27:53;96339.98;;;9.06;92.24
72118;BME280;59992;47.490;8.736;2023-11-21T14:30:45;96340.31;;;9.02;93.42
72118;BME280;59992;47.490;8.736;2023-11-21T14:33:35;96344.04;;;8.99;94.45
72118;BME280;59992;47.490;8.736;2023-11-21T14:36:26;96345.88;;;8.95;94.37
72118;BME280;59992;47.490;8.736;2023-11-21T14:39:16;96352.12;;;8.89;95.43
72118;BME280;59992;47.490;8.736;2023-11-21T14:42:12;96351.71;;;8.87;94.82
72118;BME280;59992;47.490;8.736;2023-11-21T14:45:05;96351.86;;;8.83;95.30
72118;BME280;59992;47.490;8.736;2023-11-21T14:47:56;96356.13;;;8.80;95.23
72118;BME280;59992;47.490;8.736;2023-11-21T14:50:54;96355.46;;;8.76;95.59
72118;BME280;59992;47.490;8.736;2023-11-21T14:54:07;96360.55;;;8.73;97.98
72118;BME280;59992;47.490;8.736;2023-11-21T14:56:58;96359.40;;;8.72;98.22
72118;BME280;59992;47.490;8.736;2023-11-21T14:59:50;96359.48;;;8.69;97.96
72118;BME280;59992;47.490;8.736;2023-11-21T15:02:40;96364.23;;;8.64;98.27
72118;BME280;59992;47.490;8.736;2023-11-21T15:05:38;96368.65;;;8.62;97.35
72118;BME280;59992;47.490;8.736;2023-11-21T15:08:30;96363.98;;;8.58;96.70
72118;BME280;59992;47.490;8.736;2023-11-21T15:11:21;96368.36;;;8.55;97.30
72118;BME280;59992;47.490;8.736;2023-11-21T15:14:19;96375.49;;;8.52;96.35
72118;BME280;59992;47.490;8.736;2023-11-21T15:17:14;96370.82;;;8.47;96.78
72118;BME280;59992;47.490;8.736;2023-11-21T15:20:12;96377.23;;;8.43;98.59
72118;BME280;59992;47.490;8.736;2023-11-21T15:23:08;96383.30;;;8.41;99.05